sensor_id;sensor_type;location;lat;lon;timestamp;temperature;humidity
66670;DHT22;53568;52.164;4.472;2023-04-03T00:01:31;6.85;65.92
66670;DHT22;53568;52.164;4.472;2023-04-03T00:03:57;6.92;65.59
66670;DHT22;53568;52.164;4.472;2023-04-03T00:06:23;6.86;65.45
66670;DHT22;53568;52.164;4.472;2023-04-03T00:08:49;6.96;64.63
66670;DHT22;53568;52.164;4.472;2023-04-03T00:11:16;6.95;64.33
66670;DHT22;53568;52.164;4.472;2023-04-03T00:13:41;6.92;64.31
66670;DHT22;53568;52.164;4.472;2023-04-03T00:16:08;6.95;63.43
66670;DHT22;53568;52.164;4.472;2023-04-03T00:18:34;6.89;63.25
66670;DHT22;53568;52.164;4.472;2023-04-03T00:21:00;6.85;62.72
66670;DHT22;53568;52.164;4.472;2023-04-03T00:23:26;6.92;62.21
66670;DHT22;53568;52.164;4.472;2023-04-03T00:25:53;6.93;61.65
66670;DHT22;53568;52.164;4.472;2023-04-03T00:28:19;6.91;61.63
66670;DHT22;53568;52.164;4.472;2023-04-03T00:30:44;6.86;61.96
66670;DHT22;53568;52.164;4.472;2023-04-03T00:33:13;6.76;62.08
66670;DHT22;53568;52.164;4.472;2023-04-03T00:35:39;6.78;61.75
66670;DHT22;53568;52.164;4.472;2023-04-03T00:38:05;6.85;61.25
66670;DHT22;53568;52.164;4.472;2023-04-03T00:40:36;6.81;60.74
66670;DHT22;53568;52.164;4.472;2023-04-03T00:43:28;6.75;60.90
66670;DHT22;53568;52.164;4.472;2023-04-03T00:45:56;6.59;61.50
66670;DHT22;53568;52.164;4.472;2023-04-03T00:48:26;6.69;61.42
66670;DHT22;53568;52.164;4.472;2023-04-03T00:50:54;6.65;61.21
66670;DHT22;53568;52.164;4.472;2023-04-03T00:53:30;6.56;61.66
66670;DHT22;53568;52.164;4.472;2023-04-03T00:55:57;6.58;61.81
66670;DHT22;53568;52.164;4.472;2023-04-03T00:58:33;6.51;61.81
66670;DHT22;53568;52.164;4.472;2023-04-03T01:11:05;6.41;62.34
66670;DHT22;53568;52.164;4.472;2023-04-03T01:13:32;6.35;62.55
66670;DHT22;53568;52.164;4.472;2023-04-03T01:16:04;6.35;62.81
66670;DHT22;53568;52.164;4.472;2023-04-03T01:18:32;6.30;62.71
66670;DHT22;53568;52.164;4.472;2023-04-03T01:21:44;6.31;62.66
66670;DHT22;53568;52.164;4.472;2023-04-03T01:24:33;6.31;62.67
66670;DHT22;53568;52.164;4.472;2023-04-03T01:27:01;6.14;63.31
66670;DHT22;53568;52.164;4.472;2023-04-03T01:29:27;6.16;63.39
66670;DHT22;53568;52.164;4.472;2023-04-03T01:31:59;6.25;63.27
66670;DHT22;53568;52.164;4.472;2023-04-03T01:34:26;6.17;63.44
66670;DHT22;53568;52.164;4.472;2023-04-03T01:36:52;6.24;63.32
66670;DHT22;53568;52.164;4.472;2023-04-03T01:39:18;6.20;63.52
66670;DHT22;53568;52.164;4.472;2023-04-03T01:41:44;6.13;63.59
66670;DHT22;53568;52.164;4.472;2023-04-03T01:44:10;6.06;63.95
66670;DHT22;53568;52.164;4.472;2023-04-03T01:46:35;5.97;64.26
66670;DHT22;53568;52.164;4.472;2023-04-03T01:49:03;6.04;64.00
66670;DHT22;53568;52.164;4.472;2023-04-03T01:51:29;6.10;63.94
66670;DHT22;53568;52.164;4.472;2023-04-03T01:53:54;6.07;63.92
66670;DHT22;53568;52.164;4.472;2023-04-03T01:56:20;5.94;64.02
66670;DHT22;53568;52.164;4.472;2023-04-03T01:58:45;5.87;64.57
66670;DHT22;53568;52.164;4.472;2023-04-03T02:01:11;5.96;64.42
66670;DHT22;53568;52.164;4.472;2023-04-03T02:03:36;6.00;64.34
66670;DHT22;53568;52.164;4.472;2023-04-03T02:06:02;5.86;64.89
66670;DHT22;53568;52.164;4.472;2023-04-03T02:08:27;5.91;65.20
66670;DHT22;53568;52.164;4.472;2023-04-03T02:10:53;5.96;64.68
66670;DHT22;53568;52.164;4.472;2023-04-03T02:13:19;5.89;65.13
66670;DHT22;53568;52.164;4.472;2023-04-03T02:15:45;5.87;65.36
66670;DHT22;53568;52.164;4.472;2023-04-03T02:18:12;5.93;64.86
66670;DHT22;53568;52.164;4.472;2023-04-03T02:20:37;5.83;65.10
66670;DHT22;53568;52.164;4.472;2023-04-03T02:23:03;5.69;65.82
66670;DHT22;53568;52.164;4.472;2023-04-03T02:25:30;5.71;65.93
66670;DHT22;53568;52.164;4.472;2023-04-03T02:27:56;5.52;66.28
66670;DHT22;53568;52.164;4.472;2023-04-03T02:30:22;5.53;66.41
66670;DHT22;53568;52.164;4.472;2023-04-03T02:32:47;5.70;66.33
66670;DHT22;53568;52.164;4.472;2023-04-03T02:35:13;5.66;66.35
66670;DHT22;53568;52.164;4.472;2023-04-03T02:37:38;5.76;65.99
66670;DHT22;53568;52.164;4.472;2023-04-03T02:40:05;5.69;66.52
66670;DHT22;53568;52.164;4.472;2023-04-03T02:42:31;5.50;67.26
66670;DHT22;53568;52.164;4.472;2023-04-03T02:44:56;5.67;66.59
66670;DHT22;53568;52.164;4.472;2023-04-03T02:47:22;5.50;67.15
66670;DHT22;53568;52.164;4.472;2023-04-03T02:49:47;5.62;66.79
66670;DHT22;53568;52.164;4.472;2023-04-03T02:52:14;5.60;66.84
66670;DHT22;53568;52.164;4.472;2023-04-03T02:54:40;5.50;67.40
66670;DHT22;53568;52.164;4.472;2023-04-03T02:57:06;5.52;67.69
66670;DHT22;53568;52.164;4.472;2023-04-03T02:59:37;5.70;66.98
66670;DHT22;53568;52.164;4.472;2023-04-03T03:02:08;5.71;66.86
66670;DHT22;53568;52.164;4.472;2023-04-03T03:04:34;5.69;66.87
66670;DHT22;53568;52.164;4.472;2023-04-03T03:07:00;5.67;67.06
66670;DHT22;53568;52.164;4.472;2023-04-03T03:09:25;5.46;67.55
66670;DHT22;53568;52.164;4.472;2023-04-03T03:11:51;5.57;67.48
66670;DHT22;53568;52.164;4.472;2023-04-03T03:14:17;5.56;67.68
66670;DHT22;53568;52.164;4.472;2023-04-03T03:16:43;5.59;67.46
66670;DHT22;53568;52.164;4.472;2023-04-03T03:19:09;5.57;67.63
66670;DHT22;53568;52.164;4.472;2023-04-03T03:21:34;5.54;67.71
66670;DHT22;53568;52.164;4.472;2023-04-03T03:24:00;5.49;68.00
66670;DHT22;53568;52.164;4.472;2023-04-03T03:26:25;5.32;68.46
66670;DHT22;53568;52.164;4.472;2023-04-03T03:28:51;5.36;68.32
66670;DHT22;53568;52.164;4.472;2023-04-03T03:31:17;5.29;68.55
66670;DHT22;53568;52.164;4.472;2023-04-03T03:33:42;5.39;68.76
66670;DHT22;53568;52.164;4.472;2023-04-03T03:36:08;5.46;68.25
66670;DHT22;53568;52.164;4.472;2023-04-03T03:38:33;5.43;68.51
66670;DHT22;53568;52.164;4.472;2023-04-03T03:40:59;5.33;68.64
66670;DHT22;53568;52.164;4.472;2023-04-03T03:43:25;5.33;68.95
66670;DHT22;53568;52.164;4.472;2023-04-03T03:45:52;5.36;68.95
66670;DHT22;53568;52.164;4.472;2023-04-03T03:48:18;5.36;68.91
66670;DHT22;53568;52.164;4.472;2023-04-03T03:50:45;5.39;68.87
66670;DHT22;53568;52.164;4.472;2023-04-03T03:53:10;5.39;69.05
66670;DHT22;53568;52.164;4.472;2023-04-03T03:55:36;5.39;69.02
66670;DHT22;53568;52.164;4.472;2023-04-03T03:58:01;5.43;69.00
66670;DHT22;53568;52.164;4.472;2023-04-03T04:00:27;5.33;69.40
66670;DHT22;53568;52.164;4.472;2023-04-03T04:02:52;5.36;69.29
66670;DHT22;53568;52.164;4.472;2023-04-03T04:05:18;5.32;69.39
66670;DHT22;53568;52.164;4.472;2023-04-03T04:07:44;5.26;69.56
66670;DHT22;53568;52.164;4.472;2023-04-03T04:10:09;5.26;69.59
66670;DHT22;53568;52.164;4.472;2023-04-03T04:12:35;5.20;69.74
66670;DHT22;53568;52.164;4.472;2023-04-03T04:15:01;5.16;69.94
66670;DHT22;53568;52.164;4.472;2023-04-03T04:17:27;5.12;70.16
66670;DHT22;53568;52.164;4.472;2023-04-03T04:19:53;5.11;70.48
66670;DHT22;53568;52.164;4.472;2023-04-03T04:22:18;4.99;70.75
66670;DHT22;53568;52.164;4.472;2023-04-03T04:24:44;5.08;70.69
66670;DHT22;53568;52.164;4.472;2023-04-03T04:27:09;5.09;70.44
66670;DHT22;53568;52.164;4.472;2023-04-03T04:29:35;5.15;70.34
66670;DHT22;53568;52.164;4.472;2023-04-03T04:32:03;5.11;70.47
66670;DHT22;53568;52.164;4.472;2023-04-03T04:34:28;5.08;70.54
66670;DHT22;53568;52.164;4.472;2023-04-03T04:36:54;5.11;70.49
66670;DHT22;53568;52.164;4.472;2023-04-03T04:39:20;5.08;70.62
66670;DHT22;53568;52.164;4.472;2023-04-03T04:41:45;5.02;70.86
66670;DHT22;53568;52.164;4.472;2023-04-03T04:44:11;5.02;71.02
66670;DHT22;53568;52.164;4.472;2023-04-03T04:46:37;5.05;70.82
66670;DHT22;53568;52.164;4.472;2023-04-03T04:49:02;5.00;71.04
66670;DHT22;53568;52.164;4.472;2023-04-03T04:51:28;5.08;70.94
66670;DHT22;53568;52.164;4.472;2023-04-03T04:53:53;5.05;70.94
66670;DHT22;53568;52.164;4.472;2023-04-03T04:56:19;5.09;70.96
66670;DHT22;53568;52.164;4.472;2023-04-03T04:58:44;5.06;71.03
66670;DHT22;53568;52.164;4.472;2023-04-03T05:01:10;4.99;71.45
66670;DHT22;53568;52.164;4.472;2023-04-03T05:03:36;5.08;71.04
66670;DHT22;53568;52.164;4.472;2023-04-03T05:06:03;5.05;71.09
66670;DHT22;53568;52.164;4.472;2023-04-03T05:08:29;4.88;71.33
66670;DHT22;53568;52.164;4.472;2023-04-03T05:10:55;4.96;71.45
66670;DHT22;53568;52.164;4.472;2023-04-03T05:13:20;5.06;71.32
66670;DHT22;53568;52.164;4.472;2023-04-03T05:15:46;5.06;71.13
66670;DHT22;53568;52.164;4.472;2023-04-03T05:18:13;5.00;71.23
66670;DHT22;53568;52.164;4.472;2023-04-03T05:20:39;5.08;71.34
66670;DHT22;53568;52.164;4.472;2023-04-03T05:23:05;5.05;71.14
66670;DHT22;53568;52.164;4.472;2023-04-03T05:25:31;5.09;71.20
66670;DHT22;53568;52.164;4.472;2023-04-03T05:27:56;5.09;71.03
66670;DHT22;53568;52.164;4.472;2023-04-03T05:30:22;5.08;71.17
66670;DHT22;53568;52.164;4.472;2023-04-03T05:32:47;5.11;71.08
66670;DHT22;53568;52.164;4.472;2023-04-03T05:35:13;5.09;71.05
66670;DHT22;53568;52.164;4.472;2023-04-03T05:37:39;5.08;71.14
66670;DHT22;53568;52.164;4.472;2023-04-03T05:40:05;5.02;71.47
66670;DHT22;53568;52.164;4.472;2023-04-03T05:42:31;5.12;71.31
66670;DHT22;53568;52.164;4.472;2023-04-03T05:44:57;5.04;71.00
66670;DHT22;53568;52.164;4.472;2023-04-03T05:47:22;5.08;71.26
66670;DHT22;53568;52.164;4.472;2023-04-03T05:49:48;5.12;70.96
66670;DHT22;53568;52.164;4.472;2023-04-03T05:52:22;5.09;71.07
66670;DHT22;53568;52.164;4.472;2023-04-03T05:54:50;5.06;71.38
66670;DHT22;53568;52.164;4.472;2023-04-03T05:57:16;5.11;71.17
66670;DHT22;53568;52.164;4.472;2023-04-03T05:59:42;4.99;70.91
66670;DHT22;53568;52.164;4.472;2023-04-03T06:02:15;5.04;71.31
66670;DHT22;53568;52.164;4.472;2023-04-03T06:04:41;5.05;71.24
66670;DHT22;53568;52.164;4.472;2023-04-03T06:07:12;5.08;71.50
66670;DHT22;53568;52.164;4.472;2023-04-03T06:09:38;5.20;70.97
66670;DHT22;53568;52.164;4.472;2023-04-03T06:12:04;5.15;70.90
66670;DHT22;53568;52.164;4.472;2023-04-03T06:14:30;5.11;70.88
66670;DHT22;53568;52.164;4.472;2023-04-03T06:16:56;5.08;70.82
66670;DHT22;53568;52.164;4.472;2023-04-03T06:19:22;5.08;71.14
66670;DHT22;53568;52.164;4.472;2023-04-03T06:21:48;5.16;70.81
66670;DHT22;53568;52.164;4.472;2023-04-03T06:24:16;5.13;70.80
66670;DHT22;53568;52.164;4.472;2023-04-03T06:26:42;5.04;70.71
66670;DHT22;53568;52.164;4.472;2023-04-03T06:29:08;5.04;70.88
66670;DHT22;53568;52.164;4.472;2023-04-03T06:31:34;5.00;71.12
66670;DHT22;53568;52.164;4.472;2023-04-03T06:34:01;5.02;70.96
66670;DHT22;53568;52.164;4.472;2023-04-03T06:36:27;5.06;71.12
66670;DHT22;53568;52.164;4.472;2023-04-03T06:38:52;5.06;71.06
66670;DHT22;53568;52.164;4.472;2023-04-03T06:41:18;5.12;70.79
66670;DHT22;53568;52.164;4.472;2023-04-03T06:43:44;5.16;70.82
66670;DHT22;53568;52.164;4.472;2023-04-03T06:46:18;5.20;70.77
66670;DHT22;53568;52.164;4.472;2023-04-03T06:48:44;5.26;70.84
66670;DHT22;53568;52.164;4.472;2023-04-03T06:51:22;5.22;70.94
66670;DHT22;53568;52.164;4.472;2023-04-03T06:53:48;5.25;70.27
66670;DHT22;53568;52.164;4.472;2023-04-03T06:56:15;5.26;70.10
66670;DHT22;53568;52.164;4.472;2023-04-03T06:58:42;5.36;69.94
66670;DHT22;53568;52.164;4.472;2023-04-03T07:01:09;5.46;69.63
66670;DHT22;53568;52.164;4.472;2023-04-03T07:03:36;5.50;68.93
66670;DHT22;53568;52.164;4.472;2023-04-03T07:06:03;5.50;69.17
66670;DHT22;53568;52.164;4.472;2023-04-03T07:08:29;5.43;69.20
66670;DHT22;53568;52.164;4.472;2023-04-03T07:10:55;5.49;68.94
66670;DHT22;53568;52.164;4.472;2023-04-03T07:13:20;5.63;68.81
66670;DHT22;53568;52.164;4.472;2023-04-03T07:15:46;5.69;68.47
66670;DHT22;53568;52.164;4.472;2023-04-03T07:18:11;5.78;68.15
66670;DHT22;53568;52.164;4.472;2023-04-03T07:20:38;5.64;67.92
66670;DHT22;53568;52.164;4.472;2023-04-03T07:23:04;5.76;68.07
66670;DHT22;53568;52.164;4.472;2023-04-03T07:25:30;5.83;67.71
66670;DHT22;53568;52.164;4.472;2023-04-03T07:27:57;5.86;68.11
66670;DHT22;53568;52.164;4.472;2023-04-03T07:30:23;5.83;67.00
66670;DHT22;53568;52.164;4.472;2023-04-03T07:32:49;5.89;66.76
66670;DHT22;53568;52.164;4.472;2023-04-03T07:35:14;5.91;67.12
66670;DHT22;53568;52.164;4.472;2023-04-03T07:37:40;6.07;66.55
66670;DHT22;53568;52.164;4.472;2023-04-03T07:40:06;6.08;66.13
66670;DHT22;53568;52.164;4.472;2023-04-03T07:42:32;6.11;65.46
66670;DHT22;53568;52.164;4.472;2023-04-03T07:44:57;6.16;64.71
66670;DHT22;53568;52.164;4.472;2023-04-03T07:47:23;6.24;64.75
66670;DHT22;53568;52.164;4.472;2023-04-03T07:49:49;6.27;65.06
66670;DHT22;53568;52.164;4.472;2023-04-03T07:52:14;6.40;64.33
66670;DHT22;53568;52.164;4.472;2023-04-03T07:54:41;6.44;64.11
66670;DHT22;53568;52.164;4.472;2023-04-03T07:57:07;6.59;64.01
66670;DHT22;53568;52.164;4.472;2023-04-03T07:59:33;6.55;62.98
66670;DHT22;53568;52.164;4.472;2023-04-03T08:01:58;6.44;63.02
66670;DHT22;53568;52.164;4.472;2023-04-03T08:04:24;6.58;62.12
66670;DHT22;53568;52.164;4.472;2023-04-03T08:06:51;6.42;62.49
66670;DHT22;53568;52.164;4.472;2023-04-03T08:09:17;6.44;62.70
66670;DHT22;53568;52.164;4.472;2023-04-03T08:11:44;6.58;62.19
66670;DHT22;53568;52.164;4.472;2023-04-03T08:14:10;6.58;61.79
66670;DHT22;53568;52.164;4.472;2023-04-03T08:16:42;6.61;61.51
66670;DHT22;53568;52.164;4.472;2023-04-03T08:19:08;6.61;60.44
66670;DHT22;53568;52.164;4.472;2023-04-03T08:21:33;6.55;60.76
66670;DHT22;53568;52.164;4.472;2023-04-03T08:23:59;6.65;60.64
66670;DHT22;53568;52.164;4.472;2023-04-03T08:26:24;6.89;61.05
66670;DHT22;53568;52.164;4.472;2023-04-03T08:28:52;7.06;60.29
66670;DHT22;53568;52.164;4.472;2023-04-03T08:31:18;7.15;59.01
66670;DHT22;53568;52.164;4.472;2023-04-03T08:33:46;7.19;58.53
66670;DHT22;53568;52.164;4.472;2023-04-03T08:36:24;7.36;57.62
66670;DHT22;53568;52.164;4.472;2023-04-03T08:38:50;7.27;57.19
66670;DHT22;53568;52.164;4.472;2023-04-03T08:49:51;7.34;58.05
66670;DHT22;53568;52.164;4.472;2023-04-03T08:53:04;7.43;58.02
66670;DHT22;53568;52.164;4.472;2023-04-03T08:58:26;7.60;55.31
66670;DHT22;53568;52.164;4.472;2023-04-03T09:00:51;7.63;55.40
66670;DHT22;53568;52.164;4.472;2023-04-03T09:03:20;7.61;55.44
66670;DHT22;53568;52.164;4.472;2023-04-03T09:06:03;7.64;55.86
66670;DHT22;53568;52.164;4.472;2023-04-03T09:13:54;7.84;50.48
66670;DHT22;53568;52.164;4.472;2023-04-03T09:22:26;7.87;48.72
66670;DHT22;53568;52.164;4.472;2023-04-03T09:27:33;8.07;47.73
66670;DHT22;53568;52.164;4.472;2023-04-03T09:29:58;8.12;48.65
66670;DHT22;53568;52.164;4.472;2023-04-03T09:32:33;8.28;45.65
66670;DHT22;53568;52.164;4.472;2023-04-03T09:35:04;8.31;45.59
66670;DHT22;53568;52.164;4.472;2023-04-03T09:37:44;8.39;44.86
66670;DHT22;53568;52.164;4.472;2023-04-03T09:40:33;8.46;45.41
66670;DHT22;53568;52.164;4.472;2023-04-03T09:43:08;8.48;44.41
66670;DHT22;53568;52.164;4.472;2023-04-03T09:45:45;8.46;44.04
66670;DHT22;53568;52.164;4.472;2023-04-03T09:53:41;8.73;42.49
66670;DHT22;53568;52.164;4.472;2023-04-03T09:58:45;8.89;41.43
66670;DHT22;53568;52.164;4.472;2023-04-03T10:01:32;8.92;40.12
66670;DHT22;53568;52.164;4.472;2023-04-03T10:04:14;8.90;39.92
66670;DHT22;53568;52.164;4.472;2023-04-03T10:09:29;8.82;38.51
66670;DHT22;53568;52.164;4.472;2023-04-03T10:12:09;8.85;36.63
66670;DHT22;53568;52.164;4.472;2023-04-03T10:14:38;8.90;36.82
66670;DHT22;53568;52.164;4.472;2023-04-03T10:23:02;8.95;37.43
66670;DHT22;53568;52.164;4.472;2023-04-03T10:25:40;8.79;36.85
66670;DHT22;53568;52.164;4.472;2023-04-03T10:28:39;8.83;35.27
66670;DHT22;53568;52.164;4.472;2023-04-03T10:31:18;8.83;36.24
66670;DHT22;53568;52.164;4.472;2023-04-03T10:34:02;8.90;35.86
66670;DHT22;53568;52.164;4.472;2023-04-03T10:36:45;9.12;35.31
66670;DHT22;53568;52.164;4.472;2023-04-03T10:52:30;9.97;34.42
66670;DHT22;53568;52.164;4.472;2023-04-03T10:55:22;9.99;31.46
66670;DHT22;53568;52.164;4.472;2023-04-03T10:57:49;9.90;32.00
66670;DHT22;53568;52.164;4.472;2023-04-03T11:00:20;9.85;30.77
66670;DHT22;53568;52.164;4.472;2023-04-03T11:02:57;9.84;31.85
66670;DHT22;53568;52.164;4.472;2023-04-03T11:05:36;9.87;32.53
66670;DHT22;53568;52.164;4.472;2023-04-03T11:10:57;9.85;32.63
66670;DHT22;53568;52.164;4.472;2023-04-03T11:15:58;9.92;30.68
66670;DHT22;53568;52.164;4.472;2023-04-03T11:18:35;9.71;30.53
66670;DHT22;53568;52.164;4.472;2023-04-03T11:21:11;9.55;30.93
66670;DHT22;53568;52.164;4.472;2023-04-03T11:23:40;9.46;31.00
66670;DHT22;53568;52.164;4.472;2023-04-03T11:26:15;9.40;31.33
66670;DHT22;53568;52.164;4.472;2023-04-03T11:28:43;9.61;31.74
66670;DHT22;53568;52.164;4.472;2023-04-03T11:36:10;9.70;31.88
66670;DHT22;53568;52.164;4.472;2023-04-03T11:38:43;9.71;31.03
66670;DHT22;53568;52.164;4.472;2023-04-03T11:41:11;9.74;31.65
66670;DHT22;53568;52.164;4.472;2023-04-03T11:43:55;9.55;32.22
66670;DHT22;53568;52.164;4.472;2023-04-03T11:46:50;9.71;32.05
66670;DHT22;53568;52.164;4.472;2023-04-03T12:08:47;10.29;29.62
66670;DHT22;53568;52.164;4.472;2023-04-03T12:11:25;10.41;29.54
66670;DHT22;53568;52.164;4.472;2023-04-03T12:16:23;10.56;29.99
66670;DHT22;53568;52.164;4.472;2023-04-03T12:24:39;10.42;30.20
66670;DHT22;53568;52.164;4.472;2023-04-03T12:29:53;10.44;29.38
66670;DHT22;53568;52.164;4.472;2023-04-03T12:35:36;10.75;29.01
66670;DHT22;53568;52.164;4.472;2023-04-03T12:45:53;10.59;29.56
66670;DHT22;53568;52.164;4.472;2023-04-03T12:48:26;10.75;29.64
66670;DHT22;53568;52.164;4.472;2023-04-03T12:50:54;10.75;29.68
66670;DHT22;53568;52.164;4.472;2023-04-03T12:53:32;10.92;29.77
66670;DHT22;53568;52.164;4.472;2023-04-03T12:56:21;10.82;29.32
66670;DHT22;53568;52.164;4.472;2023-04-03T12:58:49;10.86;28.96
66670;DHT22;53568;52.164;4.472;2023-04-03T13:01:24;10.93;29.11
66670;DHT22;53568;52.164;4.472;2023-04-03T13:03:56;10.96;29.65
66670;DHT22;53568;52.164;4.472;2023-04-03T13:06:38;11.07;29.35
66670;DHT22;53568;52.164;4.472;2023-04-03T13:09:06;10.66;29.53
66670;DHT22;53568;52.164;4.472;2023-04-03T13:11:39;10.72;29.73
66670;DHT22;53568;52.164;4.472;2023-04-03T13:14:18;10.92;30.54
66670;DHT22;53568;52.164;4.472;2023-04-03T13:16:57;10.90;29.72
66670;DHT22;53568;52.164;4.472;2023-04-03T13:19:27;10.84;30.40
66670;DHT22;53568;52.164;4.472;2023-04-03T13:22:04;10.93;30.23
66670;DHT22;53568;52.164;4.472;2023-04-03T13:24:34;10.99;30.85
66670;DHT22;53568;52.164;4.472;2023-04-03T13:27:03;11.09;31.01
66670;DHT22;53568;52.164;4.472;2023-04-03T13:29:32;11.27;30.16
66670;DHT22;53568;52.164;4.472;2023-04-03T13:32:00;11.00;30.20
66670;DHT22;53568;52.164;4.472;2023-04-03T13:34:32;11.16;30.26
66670;DHT22;53568;52.164;4.472;2023-04-03T13:37:01;11.27;30.15
66670;DHT22;53568;52.164;4.472;2023-04-03T13:39:31;11.43;29.98
66670;DHT22;53568;52.164;4.472;2023-04-03T13:42:00;11.17;31.60
66670;DHT22;53568;52.164;4.472;2023-04-03T13:44:35;11.19;29.88
66670;DHT22;53568;52.164;4.472;2023-04-03T13:49:38;11.06;30.19
66670;DHT22;53568;52.164;4.472;2023-04-03T13:52:24;10.99;30.70
66670;DHT22;53568;52.164;4.472;2023-04-03T13:55:01;11.12;30.42
66670;DHT22;53568;52.164;4.472;2023-04-03T13:57:28;11.20;30.40
66670;DHT22;53568;52.164;4.472;2023-04-03T13:59:54;11.10;30.14
66670;DHT22;53568;52.164;4.472;2023-04-03T14:02:32;10.90;30.18
66670;DHT22;53568;52.164;4.472;2023-04-03T14:05:00;11.10;29.76
66670;DHT22;53568;52.164;4.472;2023-04-03T14:07:29;11.19;29.56
66670;DHT22;53568;52.164;4.472;2023-04-03T14:09:55;11.31;29.97
66670;DHT22;53568;52.164;4.472;2023-04-03T14:12:34;11.44;31.05
66670;DHT22;53568;52.164;4.472;2023-04-03T14:15:04;11.50;30.42
66670;DHT22;53568;52.164;4.472;2023-04-03T14:17:30;11.64;29.36
66670;DHT22;53568;52.164;4.472;2023-04-03T14:19:57;11.66;29.81
66670;DHT22;53568;52.164;4.472;2023-04-03T14:22:27;11.53;29.34
66670;DHT22;53568;52.164;4.472;2023-04-03T14:24:54;11.60;29.10
66670;DHT22;53568;52.164;4.472;2023-04-03T14:29:52;11.61;29.48
66670;DHT22;53568;52.164;4.472;2023-04-03T14:32:22;11.57;28.98
66670;DHT22;53568;52.164;4.472;2023-04-03T14:34:50;11.37;29.88
66670;DHT22;53568;52.164;4.472;2023-04-03T14:37:22;11.43;29.82
66670;DHT22;53568;52.164;4.472;2023-04-03T14:39:49;11.41;29.31
66670;DHT22;53568;52.164;4.472;2023-04-03T14:42:24;11.57;29.80
66670;DHT22;53568;52.164;4.472;2023-04-03T14:44:52;11.67;30.23
66670;DHT22;53568;52.164;4.472;2023-04-03T14:47:24;11.64;30.05
66670;DHT22;53568;52.164;4.472;2023-04-03T14:49:50;11.51;30.96
66670;DHT22;53568;52.164;4.472;2023-04-03T14:52:23;11.53;30.69
66670;DHT22;53568;52.164;4.472;2023-04-03T14:54:50;11.58;30.63
66670;DHT22;53568;52.164;4.472;2023-04-03T14:57:16;11.63;30.88
66670;DHT22;53568;52.164;4.472;2023-04-03T14:59:43;11.54;31.60
66670;DHT22;53568;52.164;4.472;2023-04-03T15:02:31;11.47;30.86
66670;DHT22;53568;52.164;4.472;2023-04-03T15:04:59;11.33;31.38
66670;DHT22;53568;52.164;4.472;2023-04-03T15:07:28;11.38;32.20
66670;DHT22;53568;52.164;4.472;2023-04-03T15:09:54;11.54;32.14
66670;DHT22;53568;52.164;4.472;2023-04-03T15:12:24;11.70;32.02
66670;DHT22;53568;52.164;4.472;2023-04-03T15:14:50;11.68;32.16
66670;DHT22;53568;52.164;4.472;2023-04-03T15:17:19;11.70;32.22
66670;DHT22;53568;52.164;4.472;2023-04-03T15:19:45;11.60;32.73
66670;DHT22;53568;52.164;4.472;2023-04-03T15:22:16;11.73;32.65
66670;DHT22;53568;52.164;4.472;2023-04-03T15:24:43;11.77;31.18
66670;DHT22;53568;52.164;4.472;2023-04-03T15:27:11;11.71;30.73
66670;DHT22;53568;52.164;4.472;2023-04-03T15:29:39;11.60;30.90
66670;DHT22;53568;52.164;4.472;2023-04-03T15:32:05;11.28;32.26
66670;DHT22;53568;52.164;4.472;2023-04-03T15:34:32;11.40;31.63
66670;DHT22;53568;52.164;4.472;2023-04-03T15:36:57;11.48;32.04
66670;DHT22;53568;52.164;4.472;2023-04-03T15:39:24;11.46;31.95
66670;DHT22;53568;52.164;4.472;2023-04-03T15:41:50;11.36;32.18
66670;DHT22;53568;52.164;4.472;2023-04-03T15:44:17;11.48;31.77
66670;DHT22;53568;52.164;4.472;2023-04-03T15:46:45;11.38;31.96
66670;DHT22;53568;52.164;4.472;2023-04-03T15:49:11;11.37;32.52
66670;DHT22;53568;52.164;4.472;2023-04-03T15:51:37;11.46;32.05
66670;DHT22;53568;52.164;4.472;2023-04-03T15:54:03;11.50;31.88
66670;DHT22;53568;52.164;4.472;2023-04-03T15:56:29;11.41;32.69
66670;DHT22;53568;52.164;4.472;2023-04-03T15:58:55;11.38;33.52
66670;DHT22;53568;52.164;4.472;2023-04-03T16:01:20;11.30;33.72
66670;DHT22;53568;52.164;4.472;2023-04-03T16:03:46;11.27;33.86
66670;DHT22;53568;52.164;4.472;2023-04-03T16:06:14;11.38;33.98
66670;DHT22;53568;52.164;4.472;2023-04-03T16:08:41;11.40;34.43
66670;DHT22;53568;52.164;4.472;2023-04-03T16:11:06;11.53;34.54
66670;DHT22;53568;52.164;4.472;2023-04-03T16:13:32;11.44;35.49
66670;DHT22;53568;52.164;4.472;2023-04-03T16:15:59;11.41;33.71
66670;DHT22;53568;52.164;4.472;2023-04-03T16:18:26;11.41;34.72
66670;DHT22;53568;52.164;4.472;2023-04-03T16:20:51;11.37;35.34
66670;DHT22;53568;52.164;4.472;2023-04-03T16:23:18;11.26;35.50
66670;DHT22;53568;52.164;4.472;2023-04-03T16:25:43;11.12;35.82
66670;DHT22;53568;52.164;4.472;2023-04-03T16:28:12;10.83;36.30
66670;DHT22;53568;52.164;4.472;2023-04-03T16:30:43;10.83;36.65
66670;DHT22;53568;52.164;4.472;2023-04-03T16:33:10;10.93;37.07
66670;DHT22;53568;52.164;4.472;2023-04-03T16:35:36;10.89;36.45
66670;DHT22;53568;52.164;4.472;2023-04-03T16:38:02;10.95;36.38
66670;DHT22;53568;52.164;4.472;2023-04-03T16:40:27;10.88;36.08
66670;DHT22;53568;52.164;4.472;2023-04-03T16:42:52;10.77;36.25
66670;DHT22;53568;52.164;4.472;2023-04-03T16:45:18;10.70;36.70
66670;DHT22;53568;52.164;4.472;2023-04-03T16:47:44;10.84;36.61
66670;DHT22;53568;52.164;4.472;2023-04-03T16:50:10;10.86;36.82
66670;DHT22;53568;52.164;4.472;2023-04-03T16:52:36;10.84;36.87
66670;DHT22;53568;52.164;4.472;2023-04-03T16:55:02;10.79;37.55
66670;DHT22;53568;52.164;4.472;2023-04-03T16:57:28;10.76;37.83
66670;DHT22;53568;52.164;4.472;2023-04-03T16:59:54;10.73;37.29
66670;DHT22;53568;52.164;4.472;2023-04-03T17:02:22;10.63;37.86
66670;DHT22;53568;52.164;4.472;2023-04-03T17:04:50;10.77;37.11
66670;DHT22;53568;52.164;4.472;2023-04-03T17:07:17;10.70;37.07
66670;DHT22;53568;52.164;4.472;2023-04-03T17:09:43;10.69;37.32
66670;DHT22;53568;52.164;4.472;2023-04-03T17:12:09;10.63;37.42
66670;DHT22;53568;52.164;4.472;2023-04-03T17:14:34;10.63;36.88
66670;DHT22;53568;52.164;4.472;2023-04-03T17:17:00;10.53;37.97
66670;DHT22;53568;52.164;4.472;2023-04-03T17:19:27;10.55;38.22
66670;DHT22;53568;52.164;4.472;2023-04-03T17:21:53;10.53;37.80
66670;DHT22;53568;52.164;4.472;2023-04-03T17:24:18;10.50;38.51
66670;DHT22;53568;52.164;4.472;2023-04-03T17:26:44;10.53;38.23
66670;DHT22;53568;52.164;4.472;2023-04-03T17:29:10;10.60;38.69
66670;DHT22;53568;52.164;4.472;2023-04-03T17:31:35;10.59;39.02
66670;DHT22;53568;52.164;4.472;2023-04-03T17:34:01;10.68;38.85
66670;DHT22;53568;52.164;4.472;2023-04-03T17:36:28;10.58;39.32
66670;DHT22;53568;52.164;4.472;2023-04-03T17:38:54;10.55;39.52
66670;DHT22;53568;52.164;4.472;2023-04-03T17:41:21;10.44;40.30
66670;DHT22;53568;52.164;4.472;2023-04-03T17:43:46;10.39;40.33
66670;DHT22;53568;52.164;4.472;2023-04-03T17:46:12;10.16;41.41
66670;DHT22;53568;52.164;4.472;2023-04-03T17:48:39;10.26;40.62
66670;DHT22;53568;52.164;4.472;2023-04-03T17:51:11;10.24;40.99